x

Sheboygan, Wi (sgnw3) Weather Station

3:00pm - Thu 30th Mar 2017 All times are CDT. -5 hours from GMT.

  • Wind
    26mph, 29mph gusts
  • Air Temp 37°f
  • Sea Pressure 1007.8mb
  • Sheboygan, Wi
  • Sheboygan, Wi

More Historic Weather Station data

Upgrade to MSW Pro to gain access to the past 30 days of data for over 8000 Wavebouys and Weather Stations around the globe.

Join Pro

Comparision Forecast

View Surf forecast
   
Thu 03/30 3:00pm 26 29 mph 1007.8mb 37f
2:00pm 23 25 mph 1009.8mb 37f
1:00pm 23 25 mph 1010.9mb 37f
12:00pm 21 23 mph 1011.9mb 37f
11:00am 24 28 mph 1012.4mb 37f
10:00am 23 28 mph 1013.2mb 37f
9:00am 25 29 mph 1013.9mb 37f
8:00am 22 24 mph 1014.9mb 36f
7:00am 22 24 mph 1015.6mb 37f
6:00am 26 30 mph 1015.4mb 36f
5:00am 24 28 mph 1016.5mb 36f
4:00am 18 21 mph 1017.4mb 37f
3:00am 20 21 mph 1017.7mb 38f
2:00am 14 15 mph 1019mb 38f
1:00am 21 23 mph 1019.8mb 39f
12:00am 14
mph
1020.8mb 38f
Wed 03/29 11:00pm 13 14 mph 1022.1mb 37f
10:00pm 16 17 mph 1022.9mb 37f
9:00pm 20 22 mph 1022.6mb 37f
8:00pm 18 20 mph 1023.6mb 37f
7:00pm 23 24 mph 1023.1mb 37f
6:00pm 22 24 mph 1023mb 37f
5:00pm 21 22 mph 1023.7mb 36f
4:00pm 17 18 mph 1025.2mb 35f
3:00pm 16 18 mph 1026.6mb 35f
2:00pm 18 20 mph 1026.7mb 35f
1:00pm 15 16 mph 1027.1mb 37f
12:00pm 14 15 mph 1026.9mb 37f
11:00am 10
mph
1027.6mb 37f
10:00am 13 14 mph 1026.9mb 37f
9:00am 11 13 mph 1026.7mb 37f
8:00am 7 8 mph 1026.7mb 37f
7:00am 7 8 mph 1026.2mb 37f
6:00am 10 11 mph 1026mb 37f
5:00am 14 15 mph 1025.3mb 37f
4:00am 15 16 mph 1024.8mb 36f
3:00am 11 13 mph 1024.6mb 36f
2:00am 8 9 mph 1024.7mb 36f
1:00am 5
mph
1024.8mb 33f
12:00am 3
mph
1024.6mb 33f
Tue 03/28 11:00pm 2 3 mph 1024.9mb 33f
10:00pm 5 6 mph 1024.7mb 31f
9:00pm 9 10 mph 1024.5mb 33f
8:00pm 9 10 mph 1023.5mb 33f
7:00pm 16 17 mph 1023.2mb 34f
6:00pm 14 15 mph 1022.9mb 34f
5:00pm 10 11 mph 1022.6mb 34f
4:00pm 15 16 mph 1022.7mb 34f
3:00pm 15 16 mph 1022.3mb 33f
2:00pm 16 17 mph 1022.1mb 33f
1:00pm 14 15 mph 1022.1mb 33f
12:00pm 11 14 mph 1021.8mb 34f
11:00am 11 13 mph 1021.3mb 35f
10:00am 15 17 mph 1021.1mb 35f
9:00am 13 14 mph 1020.7mb 37f
8:00am 13 14 mph 1020.2mb 38f
7:00am 13 14 mph 1019.2mb 39f
6:00am 13 15 mph 1018.3mb 40f
5:00am 9 10 mph 1017.7mb 40f
4:00am 10 11 mph 1017.5mb 39f
3:00am 9 11 mph 1017.4mb 39f
2:00am 6 7 mph 1017mb 38f
1:00am 6
mph
1017mb 38f
12:00am 6 7 mph 1016.7mb 38f
Mon 03/27 11:00pm 6 7 mph 1016.5mb 37f
10:00pm 6
mph
1016.4mb 37f
9:00pm 5 6 mph 1016.1mb 36f
8:00pm 6 7 mph 1015.7mb 36f
7:00pm 5
mph
1015.6mb 36f
6:00pm 3 5 mph 1015.1mb 36f
5:00pm 7 8 mph 1014.7mb 37f
4:00pm 7
mph
1014.6mb 36f
3:00pm 5
mph
1014.5mb 37f
2:00pm 3
mph
1014.8mb 37f
1:00pm 3 5 mph 1014.5mb 38f
12:00pm 6
mph
1014.8mb 38f
11:00am 3 5 mph 1014.8mb 39f
10:00am 2 3 mph 1014.7mb 38f
9:00am  -  1 mph 1014.6mb 39f
8:00am  -  mph 1014mb 38f
7:00am 2
mph
1013.5mb 39f
6:00am 6 7 mph 1013mb 38f
5:00am 7 8 mph 1012.4mb 39f
4:00am 3 5 mph 1012.6mb 39f
3:00am 7 8 mph 1011.5mb 38f
2:00am 6 7 mph 1011.8mb 39f
1:00am 6 7 mph 1011.8mb 39f
12:00am 7 9 mph 1012.3mb 40f
Sun 03/26 11:00pm 5
mph
1011.7mb 41f
10:00pm 6
mph
1011.6mb 41f